Terminal Aerodrome Forecast
Issued by NWS

Home | Current Version | Previous Version | Text Only | Print | Product List | Glossary On
Versions: 1 2 3 4 5 6 7 8 9 10 11 12 13 14
000
FTAK31 PAFA 202327
TAFAFA
TAF
PAFA 202327Z 2100/2206 05007KT P6SM FEW035 FEW100
     FM210400 VRB04KT P6SM SKC
     FM212100 08006KT P6SM FEW050=

USA.gov is the U.S. government's official web portal to all federal, state and local government web resources and services.